Duck River, Tennessee
Current Conditions -  °F | °C
As of 8:53 PM on Thursday 18 Dec 2014 (Local Time) from KBNA Reporting Station
Overcast Overcast  
Wind Chill: 33°   Ceiling: 4200
Heat Index: 37°   Visibility: 8mi
Dew Point: 32°   Wind: 5mph
Humidity: 82%   Direction: 350°N
Pressure: 30.24"   Gusts: NA
Location:  35.72°N, 87.28°W
Report Text: KBNA 190253Z 35004KT 8SM OVC042 03/00 A3024 RMK AO2 SLP243 T00280000 53003
Loading
Personal Weather Stations






























Interactive Weather Map New forecast layout! Learn more

10-Day Weather Forecast

Advertisements
Track Severe Weather on mobile